Time;durP1;ratioP1;P1;durP2;ratioP2;P2;SDS_P1;SDS_P2;PMS_P1;PMS_P2;Temp;Humidity;BMP_temperature;BMP_pressure;BME280_temperature;BME280_humidity;BME280_pressure;Samples;Min_cycle;Max_cycle;Signal;HPM_P1;HPM_P2
2022/02/22 00:00:51;;;;;;;;;;;;;;;;;;5068347;28;19992;-68
2022/02/22 00:03:17;;;;;;;;;;;;;;;;;;5075896;28;19924;-68
2022/02/22 00:05:43;;;;;;;;;;;;;;;;;;5079291;28;19923;-68
2022/02/22 00:08:08;;;;;;;;;;;;;;;;;;5077267;28;20377;-69
2022/02/22 00:10:34;;;;;;;;;;;;;;;;;;5072077;28;19908;-68
2022/02/22 00:13:00;;;;;;;;;;;;;;;;;;5068660;28;19909;-68
2022/02/22 00:15:27;;;;;;;;;;;;;;;;;;5073533;28;19912;-69
2022/02/22 00:17:54;;;;;;;;;;;;;;;;;;5074495;28;20024;-68
2022/02/22 00:20:19;;;;;;;;;;;;;;;;;;5072448;28;19995;-68
2022/02/22 00:22:45;;;;;;;;;;;;;;;;;;5071767;28;20446;-69
2022/02/22 00:25:12;;;;;;;;;;;;;;;;;;5070706;28;19932;-68
2022/02/22 00:27:39;;;;;;;;;;;;;;;;;;5070708;28;19909;-68
2022/02/22 00:30:05;;;;;;;;;;;;;;;;;;5074068;28;19905;-68
2022/02/22 00:32:30;;;;;;;;;;;;;;;;;;5071271;28;19957;-69
2022/02/22 00:34:56;;;;;;;;;;;;;;;;;;5071983;28;19908;-68
2022/02/22 00:37:22;;;;;;;;;;;;;;;;;;5071476;28;19908;-68
2022/02/22 00:39:48;;;;;;;;;;;;;;;;;;5052012;28;19993;-69
2022/02/22 00:42:14;;;;;;;;;;;;;;;;;;5075066;28;20555;-69
2022/02/22 00:44:40;;;;;;;;;;;;;;;;;;5071536;28;19912;-69
2022/02/22 00:47:06;;;;;;;;;;;;;;;;;;5071388;28;19912;-69
2022/02/22 00:49:32;;;;;;;;;;;;;;;;;;5071097;28;20400;-69
2022/02/22 00:51:57;;;;;;;;;;;;;;;;;;5067806;28;19912;-69
2022/02/22 00:54:23;;;;;;;;;;;;;;;;;;5074079;28;19905;-68
2022/02/22 00:56:49;;;;;;;;;;;;;;;;;;5072602;28;19904;-69
2022/02/22 00:59:15;;;;;;;;;;;;;;;;;;5071200;28;19954;-69
2022/02/22 01:01:41;;;;;;;;;;;;;;;;;;5070942;28;19939;-68
2022/02/22 01:04:07;;;;;;;;;;;;;;;;;;5067326;28;19916;-68
2022/02/22 01:06:33;;;;;;;;;;;;;;;;;;5085369;28;19912;-69
2022/02/22 01:08:59;;;;;;;;;;;;;;;;;;5072423;28;19916;-68
2022/02/22 01:11:25;;;;;;;;;;;;;;;;;;5071845;28;19916;-69
2022/02/22 01:13:51;;;;;;;;;;;;;;;;;;5071645;28;19908;-69
2022/02/22 01:16:17;;;;;;;;;;;;;;;;;;5070011;28;20045;-68
2022/02/22 01:18:43;;;;;;;;;;;;;;;;;;5068291;28;20023;-69
2022/02/22 01:21:09;;;;;;;;;;;;;;;;;;5073873;28;19908;-69
2022/02/22 01:23:35;;;;;;;;;;;;;;;;;;5071491;28;19999;-69
2022/02/22 01:26:01;;;;;;;;;;;;;;;;;;5071028;28;19923;-69
2022/02/22 01:28:27;;;;;;;;;;;;;;;;;;5071002;28;19980;-69
2022/02/22 01:30:52;;;;;;;;;;;;;;;;;;5066820;28;19915;-69
2022/02/22 01:33:18;;;;;;;;;;;;;;;;;;5074785;28;19944;-69
2022/02/22 01:35:44;;;;;;;;;;;;;;;;;;5071259;28;19909;-69
2022/02/22 01:38:10;;;;;;;;;;;;;;;;;;5070588;28;20022;-69
2022/02/22 01:40:36;;;;;;;;;;;;;;;;;;5072737;28;19908;-68
2022/02/22 01:43:02;;;;;;;;;;;;;;;;;;5068502;28;19987;-69
2022/02/22 01:45:28;;;;;;;;;;;;;;;;;;5072043;28;19912;-69
2022/02/22 01:47:54;;;;;;;;;;;;;;;;;;5072237;28;19999;-69
2022/02/22 01:50:19;;;;;;;;;;;;;;;;;;5070595;28;19908;-69
2022/02/22 01:52:45;;;;;;;;;;;;;;;;;;5071412;28;19915;-69
2022/02/22 01:55:11;;;;;;;;;;;;;;;;;;5069055;28;20074;-69
2022/02/22 01:57:37;;;;;;;;;;;;;;;;;;5070427;28;19911;-69
2022/02/22 02:00:03;;;;;;;;;;;;;;;;;;5072104;28;19927;-69
2022/02/22 02:02:29;;;;;;;;;;;;;;;;;;5070711;28;19921;-69
2022/02/22 02:04:55;;;;;;;;;;;;;;;;;;5071034;28;19912;-69
2022/02/22 02:07:21;;;;;;;;;;;;;;;;;;5082167;28;20552;-69
2022/02/22 02:09:46;;;;;;;;;;;;;;;;;;5067243;28;19908;-69
2022/02/22 02:12:12;;;;;;;;;;;;;;;;;;5074054;28;19905;-69
2022/02/22 02:14:38;;;;;;;;;;;;;;;;;;5073356;28;20007;-69
2022/02/22 02:17:04;;;;;;;;;;;;;;;;;;5074271;28;19908;-69
2022/02/22 02:19:30;;;;;;;;;;;;;;;;;;5075391;28;19908;-69
2022/02/22 02:21:56;;;;;;;;;;;;;;;;;;5070872;28;19970;-69
2022/02/22 02:24:22;;;;;;;;;;;;;;;;;;5076953;28;19908;-69
2022/02/22 02:26:48;;;;;;;;;;;;;;;;;;5074697;28;20353;-69
2022/02/22 02:29:14;;;;;;;;;;;;;;;;;;5073645;28;19986;-69
2022/02/22 02:31:40;;;;;;;;;;;;;;;;;;5074180;28;19955;-69
2022/02/22 02:34:05;;;;;;;;;;;;;;;;;;5071794;28;19999;-69
2022/02/22 02:36:32;;;;;;;;;;;;;;;;;;5074691;28;20342;-68
2022/02/22 02:38:57;;;;;;;;;;;;;;;;;;5075074;28;19950;-69
2022/02/22 02:41:23;;;;;;;;;;;;;;;;;;5073442;28;19916;-69
2022/02/22 02:43:49;;;;;;;;;;;;;;;;;;5073776;28;19908;-69
2022/02/22 02:46:15;;;;;;;;;;;;;;;;;;5073075;28;19943;-69
2022/02/22 02:48:41;;;;;;;;;;;;;;;;;;5071880;28;19924;-69
2022/02/22 02:51:07;;;;;;;;;;;;;;;;;;5075857;28;20510;-69
2022/02/22 02:53:33;;;;;;;;;;;;;;;;;;5073818;28;20002;-68
2022/02/22 02:55:58;;;;;;;;;;;;;;;;;;5073933;28;19920;-69
2022/02/22 02:58:24;;;;;;;;;;;;;;;;;;5073617;28;20389;-69
2022/02/22 03:00:50;;;;;;;;;;;;;;;;;;5069099;28;19961;-69
2022/02/22 03:03:16;;;;;;;;;;;;;;;;;;5087945;28;20288;-69
2022/02/22 03:05:42;;;;;;;;;;;;;;;;;;5080362;28;19971;-68
2022/02/22 03:08:08;;;;;;;;;;;;;;;;;;5078993;28;20364;-68
2022/02/22 03:10:34;;;;;;;;;;;;;;;;;;5073505;28;19908;-68
2022/02/22 03:13:00;;;;;;;;;;;;;;;;;;5069343;28;19908;-68
2022/02/22 03:15:25;;;;;;;;;;;;;;;;;;5074765;28;19904;-69
2022/02/22 03:17:51;;;;;;;;;;;;;;;;;;5074555;28;19939;-69
2022/02/22 03:20:17;;;;;;;;;;;;;;;;;;5073288;28;19908;-68
2022/02/22 03:22:45;;;;;;;;;;;;;;;;;;5073242;28;20381;-69
2022/02/22 03:25:11;;;;;;;;;;;;;;;;;;5070458;28;19921;-68
2022/02/22 03:27:37;;;;;;;;;;;;;;;;;;5071863;28;19905;-69
2022/02/22 03:30:03;;;;;;;;;;;;;;;;;;5074490;28;19905;-69
2022/02/22 03:32:29;;;;;;;;;;;;;;;;;;5073146;28;19931;-69
2022/02/22 03:34:55;;;;;;;;;;;;;;;;;;5072972;28;20367;-69
2022/02/22 03:37:21;;;;;;;;;;;;;;;;;;5072393;28;19917;-69
2022/02/22 03:39:47;;;;;;;;;;;;;;;;;;5069507;28;19923;-69
2022/02/22 03:42:13;;;;;;;;;;;;;;;;;;5086434;28;19954;-69
2022/02/22 03:44:39;;;;;;;;;;;;;;;;;;5072825;28;19916;-68
2022/02/22 03:47:05;;;;;;;;;;;;;;;;;;5072922;28;19920;-69
2022/02/22 03:49:31;;;;;;;;;;;;;;;;;;5072903;28;20351;-69
2022/02/22 03:51:56;;;;;;;;;;;;;;;;;;5067935;28;19992;-69
2022/02/22 03:54:22;;;;;;;;;;;;;;;;;;5075163;28;19927;-69
2022/02/22 03:56:48;;;;;;;;;;;;;;;;;;5073044;28;19911;-69
2022/02/22 03:59:14;;;;;;;;;;;;;;;;;;5072483;28;19952;-69
2022/02/22 04:01:40;;;;;;;;;;;;;;;;;;5071540;28;19912;-68
2022/02/22 04:04:06;;;;;;;;;;;;;;;;;;5068198;28;19916;-69
2022/02/22 04:06:32;;;;;;;;;;;;;;;;;;5086711;28;20434;-69
2022/02/22 04:08:57;;;;;;;;;;;;;;;;;;5073299;28;19905;-69
2022/02/22 04:11:23;;;;;;;;;;;;;;;;;;5071963;28;19915;-69
2022/02/22 04:13:49;;;;;;;;;;;;;;;;;;5072759;28;19957;-69
2022/02/22 04:16:15;;;;;;;;;;;;;;;;;;5071007;28;19942;-69
2022/02/22 04:18:41;;;;;;;;;;;;;;;;;;5069975;28;20260;-70
2022/02/22 04:21:07;;;;;;;;;;;;;;;;;;5074235;28;20395;-69
2022/02/22 04:23:33;;;;;;;;;;;;;;;;;;5071875;28;19955;-69
2022/02/22 04:25:59;;;;;;;;;;;;;;;;;;5071742;28;19929;-69
2022/02/22 04:28:24;;;;;;;;;;;;;;;;;;5072225;28;19908;-69
2022/02/22 04:30:50;;;;;;;;;;;;;;;;;;5069567;28;19991;-69
2022/02/22 04:33:16;;;;;;;;;;;;;;;;;;5069419;28;20445;-69
2022/02/22 04:35:42;;;;;;;;;;;;;;;;;;5068475;28;19913;-69
2022/02/22 04:38:08;;;;;;;;;;;;;;;;;;5070079;28;19908;-69
2022/02/22 04:40:34;;;;;;;;;;;;;;;;;;5067241;28;19904;-70
2022/02/22 04:43:00;;;;;;;;;;;;;;;;;;5068584;28;19912;-69
2022/02/22 04:45:26;;;;;;;;;;;;;;;;;;5069583;28;19947;-69
2022/02/22 04:47:55;;;;;;;;;;;;;;;;;;5068909;28;19909;-69
2022/02/22 04:50:22;;;;;;;;;;;;;;;;;;5074225;28;20011;-69
2022/02/22 04:52:48;;;;;;;;;;;;;;;;;;5079376;28;19955;-69
2022/02/22 04:55:14;;;;;;;;;;;;;;;;;;5070148;28;19970;-68
2022/02/22 04:57:40;;;;;;;;;;;;;;;;;;5069938;28;20327;-68
2022/02/22 05:00:06;;;;;;;;;;;;;;;;;;5073868;28;19908;-69
2022/02/22 05:02:31;;;;;;;;;;;;;;;;;;5071101;28;19970;-69
2022/02/22 05:04:57;;;;;;;;;;;;;;;;;;5071990;28;19939;-69
2022/02/22 05:07:23;;;;;;;;;;;;;;;;;;5082960;28;19915;-69
2022/02/22 05:09:49;;;;;;;;;;;;;;;;;;5051191;28;20002;-69
2022/02/22 05:12:15;;;;;;;;;;;;;;;;;;5074758;28;20290;-69
2022/02/22 05:14:41;;;;;;;;;;;;;;;;;;5071779;28;20042;-69
2022/02/22 05:17:07;;;;;;;;;;;;;;;;;;5071157;28;19977;-69
2022/02/22 05:19:33;;;;;;;;;;;;;;;;;;5071300;28;19912;-69
2022/02/22 05:21:58;;;;;;;;;;;;;;;;;;5067928;28;20291;-69
2022/02/22 05:24:24;;;;;;;;;;;;;;;;;;5072387;28;19904;-69
2022/02/22 05:26:50;;;;;;;;;;;;;;;;;;5072214;28;19970;-69
2022/02/22 05:29:16;;;;;;;;;;;;;;;;;;5071542;28;19909;-69
2022/02/22 05:31:42;;;;;;;;;;;;;;;;;;5071556;28;19915;-69
2022/02/22 05:34:08;;;;;;;;;;;;;;;;;;5069054;28;20493;-69
2022/02/22 05:36:34;;;;;;;;;;;;;;;;;;5071657;28;20260;-69
2022/02/22 05:39:00;;;;;;;;;;;;;;;;;;5071919;28;19912;-69
2022/02/22 05:41:26;;;;;;;;;;;;;;;;;;5068084;28;20263;-69
2022/02/22 05:43:51;;;;;;;;;;;;;;;;;;5068097;28;19958;-69
2022/02/22 05:46:17;;;;;;;;;;;;;;;;;;5066003;28;19948;-69
2022/02/22 05:48:43;;;;;;;;;;;;;;;;;;5070611;28;19923;-69
2022/02/22 05:51:09;;;;;;;;;;;;;;;;;;5073346;28;19912;-69
2022/02/22 05:53:35;;;;;;;;;;;;;;;;;;5067190;28;20375;-69
2022/02/22 05:56:01;;;;;;;;;;;;;;;;;;5067474;28;19920;-69
2022/02/22 05:58:27;;;;;;;;;;;;;;;;;;5074092;28;19916;-69
2022/02/22 06:00:53;;;;;;;;;;;;;;;;;;5070236;28;19908;-69
2022/02/22 06:03:19;;;;;;;;;;;;;;;;;;5077320;28;19920;-70
2022/02/22 06:05:45;;;;;;;;;;;;;;;;;;5073193;28;19931;-70
2022/02/22 06:08:10;;;;;;;;;;;;;;;;;;5069238;28;20341;-70
2022/02/22 06:10:36;;;;;;;;;;;;;;;;;;5074812;28;20359;-68
2022/02/22 06:13:02;;;;;;;;;;;;;;;;;;5070643;28;19913;-68
2022/02/22 06:15:28;;;;;;;;;;;;;;;;;;5066751;28;19919;-67
2022/02/22 06:17:54;;;;;;;;;;;;;;;;;;5066645;28;19943;-67
2022/02/22 06:20:20;;;;;;;;;;;;;;;;;;5065620;28;19908;-67
2022/02/22 06:22:46;;;;;;;;;;;;;;;;;;5065645;28;20621;-68
2022/02/22 06:25:12;;;;;;;;;;;;;;;;;;5072338;28;19915;-68
2022/02/22 06:27:37;;;;;;;;;;;;;;;;;;5072586;28;19905;-69
2022/02/22 06:30:03;;;;;;;;;;;;;;;;;;5075436;28;19908;-69
2022/02/22 06:32:29;;;;;;;;;;;;;;;;;;5074643;28;19919;-69
2022/02/22 06:34:55;;;;;;;;;;;;;;;;;;5073532;28;20456;-69
2022/02/22 06:37:21;;;;;;;;;;;;;;;;;;5073724;28;19908;-70
2022/02/22 06:39:47;;;;;;;;;;;;;;;;;;5070572;28;19917;-69
2022/02/22 06:42:13;;;;;;;;;;;;;;;;;;5079035;28;19915;-69
2022/02/22 06:44:39;;;;;;;;;;;;;;;;;;5073227;28;20360;-69
2022/02/22 06:47:04;;;;;;;;;;;;;;;;;;5071062;28;19924;-73
2022/02/22 06:49:30;;;;;;;;;;;;;;;;;;5073637;28;19915;-73
2022/02/22 06:51:56;;;;;;;;;;;;;;;;;;5069944;28;20003;-73
2022/02/22 06:54:22;;;;;;;;;;;;;;;;;;5076207;28;20279;-73
2022/02/22 06:56:48;;;;;;;;;;;;;;;;;;5074261;28;19905;-73
2022/02/22 06:59:14;;;;;;;;;;;;;;;;;;5073036;28;20025;-73
2022/02/22 07:01:40;;;;;;;;;;;;;;;;;;5072368;28;19908;-68
2022/02/22 07:04:06;;;;;;;;;;;;;;;;;;5068932;28;19913;-69
2022/02/22 07:06:32;;;;;;;;;;;;;;;;;;5087768;28;19912;-69
2022/02/22 07:08:57;;;;;;;;;;;;;;;;;;5072900;28;19911;-70
2022/02/22 07:11:24;;;;;;;;;;;;;;;;;;5071955;28;20256;-69
2022/02/22 07:13:50;;;;;;;;;;;;;;;;;;5071008;28;19917;-69
2022/02/22 07:16:16;;;;;;;;;;;;;;;;;;5071254;28;19961;-69
2022/02/22 07:18:43;;;;;;;;;;;;;;;;;;5070765;28;19916;-69
2022/02/22 07:21:09;;;;;;;;;;;;;;;;;;5075549;28;19911;-69
2022/02/22 07:23:35;;;;;;;;;;;;;;;;;;5073019;28;19995;-70
2022/02/22 07:26:00;;;;;;;;;;;;;;;;;;5072788;28;19923;-70
2022/02/22 07:28:26;;;;;;;;;;;;;;;;;;5073247;28;19912;-70
2022/02/22 07:30:52;;;;;;;;;;;;;;;;;;5068329;28;19912;-70
2022/02/22 07:33:18;;;;;;;;;;;;;;;;;;5076550;28;20294;-69
2022/02/22 07:35:44;;;;;;;;;;;;;;;;;;5072477;28;19915;-69
2022/02/22 07:38:10;;;;;;;;;;;;;;;;;;5072858;28;19955;-69
2022/02/22 07:40:36;;;;;;;;;;;;;;;;;;5073016;28;19955;-69
2022/02/22 07:43:02;;;;;;;;;;;;;;;;;;5069115;28;20263;-69
2022/02/22 07:45:28;;;;;;;;;;;;;;;;;;5073949;28;19920;-69
2022/02/22 07:47:53;;;;;;;;;;;;;;;;;;5073769;28;20287;-69
2022/02/22 07:50:19;;;;;;;;;;;;;;;;;;5072268;28;20007;-69
2022/02/22 07:52:45;;;;;;;;;;;;;;;;;;5072830;28;20367;-68
2022/02/22 07:55:11;;;;;;;;;;;;;;;;;;5069833;28;20389;-69
2022/02/22 07:57:37;;;;;;;;;;;;;;;;;;5072106;28;19905;-68
2022/02/22 08:00:03;;;;;;;;;;;;;;;;;;5074385;28;19909;-68
2022/02/22 08:02:29;;;;;;;;;;;;;;;;;;5071855;28;19920;-68
2022/02/22 08:04:55;;;;;;;;;;;;;;;;;;5071633;28;19908;-68
2022/02/22 08:07:21;;;;;;;;;;;;;;;;;;5072258;28;19985;-68
2022/02/22 08:09:47;;;;;;;;;;;;;;;;;;5067090;28;19915;-68
2022/02/22 08:12:13;;;;;;;;;;;;;;;;;;5071492;28;19948;-68
2022/02/22 08:14:39;;;;;;;;;;;;;;;;;;5072114;28;20333;-69
2022/02/22 08:17:05;;;;;;;;;;;;;;;;;;5071618;28;19908;-68
2022/02/22 08:19:31;;;;;;;;;;;;;;;;;;5072611;28;19908;-67
2022/02/22 08:21:57;;;;;;;;;;;;;;;;;;5070060;28;19916;-67
2022/02/22 08:24:22;;;;;;;;;;;;;;;;;;5065490;28;19908;-68
2022/02/22 08:26:48;;;;;;;;;;;;;;;;;;5068274;28;19995;-68
2022/02/22 08:29:14;;;;;;;;;;;;;;;;;;5062856;28;19926;-68
2022/02/22 08:31:40;;;;;;;;;;;;;;;;;;5068647;28;20374;-68
2022/02/22 08:34:06;;;;;;;;;;;;;;;;;;5067641;28;19947;-69
2022/02/22 08:36:32;;;;;;;;;;;;;;;;;;5069361;28;19908;-69
2022/02/22 08:38:59;;;;;;;;;;;;;;;;;;5063854;28;20318;-69
2022/02/22 08:41:24;;;;;;;;;;;;;;;;;;5062560;28;19911;-69
2022/02/22 08:43:50;;;;;;;;;;;;;;;;;;5062660;28;19908;-70
2022/02/22 08:46:16;;;;;;;;;;;;;;;;;;5066472;28;19913;-70
2022/02/22 08:48:42;;;;;;;;;;;;;;;;;;5064604;28;19939;-69
2022/02/22 08:51:08;;;;;;;;;;;;;;;;;;5084352;28;19904;-70
2022/02/22 08:53:34;;;;;;;;;;;;;;;;;;5073349;28;19959;-69
2022/02/22 08:56:02;;;;;;;;;;;;;;;;;;5070976;28;19908;-70
2022/02/22 08:58:28;;;;;;;;;;;;;;;;;;5071360;28;19911;-70
2022/02/22 09:00:53;;;;;;;;;;;;;;;;;;5067499;28;19912;-69
2022/02/22 09:03:19;;;;;;;;;;;;;;;;;;5075050;28;20362;-70
2022/02/22 09:05:45;;;;;;;;;;;;;;;;;;5077714;28;19920;-69
2022/02/22 09:08:11;;;;;;;;;;;;;;;;;;5076166;28;20035;-69
2022/02/22 09:10:38;;;;;;;;;;;;;;;;;;5071639;28;20440;-70
2022/02/22 09:13:04;;;;;;;;;;;;;;;;;;5068768;28;19908;-70
2022/02/22 09:15:31;;;;;;;;;;;;;;;;;;5071822;28;20394;-70
2022/02/22 09:17:57;;;;;;;;;;;;;;;;;;5072666;28;19908;-70
2022/02/22 09:20:23;;;;;;;;;;;;;;;;;;5071071;28;19977;-69
2022/02/22 09:22:49;;;;;;;;;;;;;;;;;;5071550;28;19913;-69
2022/02/22 09:25:15;;;;;;;;;;;;;;;;;;5073589;28;20270;-71
2022/02/22 09:27:42;;;;;;;;;;;;;;;;;;5073201;28;19967;-70
2022/02/22 09:30:08;;;;;;;;;;;;;;;;;;5067816;28;19916;-69
2022/02/22 09:32:34;;;;;;;;;;;;;;;;;;5059445;28;19905;-70
2022/02/22 09:35:00;;;;;;;;;;;;;;;;;;5068712;28;20370;-70
2022/02/22 09:37:26;;;;;;;;;;;;;;;;;;5075277;28;19986;-70
2022/02/22 09:39:51;;;;;;;;;;;;;;;;;;5070481;28;19908;-70
2022/02/22 09:42:17;;;;;;;;;;;;;;;;;;5069023;28;20639;-70
2022/02/22 09:44:43;;;;;;;;;;;;;;;;;;5067265;28;20366;-70
2022/02/22 09:47:09;;;;;;;;;;;;;;;;;;5076817;28;19920;-69
2022/02/22 09:49:35;;;;;;;;;;;;;;;;;;5074723;28;19908;-69
2022/02/22 09:52:01;;;;;;;;;;;;;;;;;;5071547;28;19913;-69
2022/02/22 09:54:27;;;;;;;;;;;;;;;;;;5076618;28;19940;-71
2022/02/22 09:56:53;;;;;;;;;;;;;;;;;;5075412;28;20406;-69
2022/02/22 09:59:21;;;;;;;;;;;;;;;;;;5073937;28;19962;-69
2022/02/22 10:01:47;;;;;;;;;;;;;;;;;;5075060;28;19915;-70
2022/02/22 10:04:13;;;;;;;;;;;;;;;;;;5065766;28;19917;-70
2022/02/22 10:06:39;;;;;;;;;;;;;;;;;;5088014;28;19916;-70
2022/02/22 10:09:05;;;;;;;;;;;;;;;;;;5076108;28;20003;-70
2022/02/22 10:11:32;;;;;;;;;;;;;;;;;;5074731;28;19954;-71
2022/02/22 10:13:58;;;;;;;;;;;;;;;;;;5074266;28;19908;-69
2022/02/22 10:16:23;;;;;;;;;;;;;;;;;;5068161;28;20342;-70
2022/02/22 10:18:49;;;;;;;;;;;;;;;;;;5067809;28;20030;-69
2022/02/22 10:21:15;;;;;;;;;;;;;;;;;;5067864;28;19908;-69
2022/02/22 10:23:41;;;;;;;;;;;;;;;;;;5074078;28;19916;-71
2022/02/22 10:26:07;;;;;;;;;;;;;;;;;;5074300;28;19923;-69
2022/02/22 10:28:33;;;;;;;;;;;;;;;;;;5073963;28;19915;-70
2022/02/22 10:30:59;;;;;;;;;;;;;;;;;;5070830;28;20182;-70
2022/02/22 10:33:25;;;;;;;;;;;;;;;;;;5076117;28;19912;-70
2022/02/22 10:35:51;;;;;;;;;;;;;;;;;;5074287;28;19946;-69
2022/02/22 10:38:17;;;;;;;;;;;;;;;;;;5073824;28;19909;-69
2022/02/22 10:40:43;;;;;;;;;;;;;;;;;;5074513;28;19915;-70
2022/02/22 10:43:09;;;;;;;;;;;;;;;;;;5071467;28;20382;-70
2022/02/22 10:45:35;;;;;;;;;;;;;;;;;;5073604;28;19919;-69
2022/02/22 10:48:01;;;;;;;;;;;;;;;;;;5074955;28;19939;-69
2022/02/22 10:50:31;;;;;;;;;;;;;;;;;;5073750;28;19912;-69
2022/02/22 10:52:57;;;;;;;;;;;;;;;;;;5069960;28;20727;-69
2022/02/22 10:55:23;;;;;;;;;;;;;;;;;;5068109;28;19999;-69
2022/02/22 10:57:49;;;;;;;;;;;;;;;;;;5071893;28;19916;-69
2022/02/22 11:00:14;;;;;;;;;;;;;;;;;;5067166;28;20382;-69
2022/02/22 11:02:40;;;;;;;;;;;;;;;;;;5065977;28;19916;-69
2022/02/22 11:05:07;;;;;;;;;;;;;;;;;;5073833;28;19931;-72
2022/02/22 11:07:33;;;;;;;;;;;;;;;;;;5083559;28;20422;-66
2022/02/22 11:09:59;;;;;;;;;;;;;;;;;;5070431;28;19908;-67
2022/02/22 11:12:25;;;;;;;;;;;;;;;;;;5064931;28;19927;-67
2022/02/22 11:14:50;;;;;;;;;;;;;;;;;;5066825;28;20402;-66
2022/02/22 11:17:16;;;;;;;;;;;;;;;;;;5073262;28;20029;-69
2022/02/22 11:19:45;;;;;;;;;;;;;;;;;;5074088;28;19970;-69
2022/02/22 11:22:11;;;;;;;;;;;;;;;;;;5070816;28;19916;-69
2022/02/22 11:24:36;;;;;;;;;;;;;;;;;;5073196;28;19904;-69
2022/02/22 11:27:02;;;;;;;;;;;;;;;;;;5074356;28;19934;-69
2022/02/22 11:29:28;;;;;;;;;;;;;;;;;;5072498;28;19961;-68
2022/02/22 11:31:54;;;;;;;;;;;;;;;;;;5072936;28;20355;-68
2022/02/22 11:34:20;;;;;;;;;;;;;;;;;;5067396;28;19963;-68
2022/02/22 11:36:46;;;;;;;;;;;;;;;;;;5071650;28;19916;-69
2022/02/22 11:39:12;;;;;;;;;;;;;;;;;;5075607;28;19927;-68
2022/02/22 11:41:38;;;;;;;;;;;;;;;;;;5072492;28;19998;-67
2022/02/22 11:44:04;;;;;;;;;;;;;;;;;;5068099;28;19934;-66
2022/02/22 11:46:30;;;;;;;;;;;;;;;;;;5068462;28;20427;-67
2022/02/22 11:48:56;;;;;;;;;;;;;;;;;;5066956;28;19909;-64
2022/02/22 11:51:22;;;;;;;;;;;;;;;;;;5070769;28;19931;-64
2022/02/22 11:53:49;;;;;;;;;;;;;;;;;;5067484;28;19995;-66
2022/02/22 11:56:14;;;;;;;;;;;;;;;;;;5067620;28;19908;-66
2022/02/22 11:58:41;;;;;;;;;;;;;;;;;;5067012;28;19909;-66
2022/02/22 12:01:08;;;;;;;;;;;;;;;;;;5067465;28;19915;-65
2022/02/22 12:03:33;;;;;;;;;;;;;;;;;;5068773;28;19916;-64
2022/02/22 12:06:02;;;;;;;;;;;;;;;;;;5064176;28;20364;-64
2022/02/22 12:08:28;;;;;;;;;;;;;;;;;;5066723;28;19905;-69
2022/02/22 12:10:54;;;;;;;;;;;;;;;;;;5067179;28;20352;-70
2022/02/22 12:13:20;;;;;;;;;;;;;;;;;;5066288;28;19958;-69
2022/02/22 12:15:46;;;;;;;;;;;;;;;;;;5067698;28;20370;-71
2022/02/22 12:18:12;;;;;;;;;;;;;;;;;;5069142;28;19904;-67
2022/02/22 12:20:38;;;;;;;;;;;;;;;;;;5067823;28;19919;-74
2022/02/22 12:23:04;;;;;;;;;;;;;;;;;;5066949;28;20012;-73
2022/02/22 12:25:30;;;;;;;;;;;;;;;;;;5068073;28;20290;-73
2022/02/22 12:27:55;;;;;;;;;;;;;;;;;;5079116;28;19962;-73
2022/02/22 12:30:21;;;;;;;;;;;;;;;;;;5070663;28;19908;-72
2022/02/22 12:32:47;;;;;;;;;;;;;;;;;;5067722;28;19908;-73
2022/02/22 12:35:13;;;;;;;;;;;;;;;;;;5067623;28;20053;-73
2022/02/22 12:37:39;;;;;;;;;;;;;;;;;;5066702;28;19912;-73
2022/02/22 12:40:05;;;;;;;;;;;;;;;;;;5067245;28;20368;-73
2022/02/22 12:42:31;;;;;;;;;;;;;;;;;;5070029;28;19958;-73
2022/02/22 12:44:57;;;;;;;;;;;;;;;;;;5068829;28;19911;-73
2022/02/22 12:47:22;;;;;;;;;;;;;;;;;;5067419;28;19974;-73
2022/02/22 12:49:48;;;;;;;;;;;;;;;;;;5067235;28;19908;-73
2022/02/22 12:52:16;;;;;;;;;;;;;;;;;;5066684;28;20370;-72
2022/02/22 12:54:43;;;;;;;;;;;;;;;;;;5068696;28;20019;-72
2022/02/22 12:57:08;;;;;;;;;;;;;;;;;;5069628;28;19937;-72
2022/02/22 12:59:34;;;;;;;;;;;;;;;;;;5067227;28;19995;-72
2022/02/22 13:02:00;;;;;;;;;;;;;;;;;;5082213;28;19920;-72
2022/02/22 13:04:26;;;;;;;;;;;;;;;;;;5069363;28;20318;-71
2022/02/22 13:06:52;;;;;;;;;;;;;;;;;;5083136;28;20006;-71
2022/02/22 13:09:18;;;;;;;;;;;;;;;;;;5075203;28;19958;-71
2022/02/22 13:11:46;;;;;;;;;;;;;;;;;;5070462;28;19979;-71
2022/02/22 13:14:12;;;;;;;;;;;;;;;;;;5067663;28;19970;-71
2022/02/22 13:30:07;;;;;;;0.43;0.10;;;;;;;;;;5125656;27;20434;-76
2022/02/22 13:32:34;;;;;;;0.32;0.28;;;;;;;;;;5108403;28;20399;-75
2022/02/22 13:35:01;;;;;;;0.40;0.15;;;;;;;;;;5128446;28;20046;-75
2022/02/22 13:37:30;;;;;;;0.30;0.10;;;;;;;;;;5123467;28;20463;-76
2022/02/22 13:40:06;;;;;;;1.40;0.80;;;;;;;;;;5123113;28;20035;-76
2022/02/22 13:42:33;;;;;;;0.17;0.15;;;;;;;;;;5125363;28;20024;-76
2022/02/22 13:45:00;;;;;;;0.95;0.20;;;;;;;;;;5126050;28;20027;-76
2022/02/22 13:47:32;;;;;;;0.73;0.10;;;;;;;;;;5127606;28;20379;-76
2022/02/22 13:49:59;;;;;;;0.45;0.10;;;;;;;;;;5128547;28;20031;-75
2022/02/22 13:52:25;;;;;;;0.10;0.10;;;;;;;;;;5127921;28;20019;-75
2022/02/22 13:54:53;;;;;;;1.75;0.10;;;;;;;;;;5125159;28;20031;-75
2022/02/22 13:57:19;;;;;;;0.20;0.10;;;;;;;;;;5126419;28;20062;-75
2022/02/22 13:59:46;;;;;;;0.20;0.20;;;;;;;;;;5126413;28;20028;-75
2022/02/22 14:02:22;;;;;;;0.10;0.10;;;;;;;;;;5124713;28;20059;-75
2022/02/22 14:04:48;;;;;;;0.10;0.10;;;;;;;;;;5125588;28;20092;-75
2022/02/22 14:07:18;;;;;;;0.10;0.10;;;;;;;;;;5127043;28;20191;-73
2022/02/22 14:09:44;;;;;;;0.65;0.20;;;;;;;;;;5118542;28;20023;-73
2022/02/22 14:12:10;;;;;;;0.17;0.10;;;;;;;;;;5125690;28;20477;-76
2022/02/22 14:14:36;;;;;;;0.30;0.20;;;;;;;;;;5127052;27;20981;-75
2022/02/22 14:17:02;;;;;;;0.35;0.15;;;;;;;;;;5128250;28;20015;-74
2022/02/22 14:19:28;;;;;;;0.20;0.10;;;;;;;;;;5125497;28;20023;-74
2022/02/22 14:21:54;;;;;;;0.20;0.10;;;;;;;;;;5127312;28;20050;-74
2022/02/22 14:24:21;;;;;;;0.10;0.10;;;;;;;;;;5125071;28;20472;-74
2022/02/22 14:26:47;;;;;;;0.43;0.15;;;;;;;;;;5125910;28;20019;-74
2022/02/22 14:29:13;;;;;;;0.52;0.20;;;;;;;;;;5101811;28;20055;-74
2022/02/22 14:31:40;;;;;;;0.20;0.10;;;;;;;;;;5110941;28;20024;-74
2022/02/22 14:34:07;;;;;;;0.28;0.10;;;;;;;;;;5111028;28;20023;-73
2022/02/22 14:36:33;;;;;;;0.43;0.13;;;;;;;;;;5111950;28;20062;-73
2022/02/22 14:39:00;;;;;;;0.80;0.25;;;;;;;;;;5111097;28;20059;-74
2022/02/22 14:41:28;;;;;;;0.93;0.20;;;;;;;;;;5094240;28;20016;-73
2022/02/22 14:43:55;;;;;;;0.40;0.13;;;;;;;;;;5113521;28;20028;-74
2022/02/22 14:46:21;;;;;;;0.60;0.10;;;;;;;;;;5109350;28;20063;-74
2022/02/22 14:48:47;;;;;;;0.43;0.10;;;;;;;;;;5110259;28;20093;-73
2022/02/22 14:51:14;;;;;;;0.20;0.10;;;;;;;;;;5094272;28;20041;-74
2022/02/22 14:53:41;;;;;;;0.45;0.20;;;;;;;;;;5094600;28;20451;-74
2022/02/22 14:56:08;;;;;;;0.08;0.08;;;;;;;;;;5112433;28;20022;-73
2022/02/22 14:58:34;;;;;;;0.10;0.10;;;;;;;;;;5107907;28;20037;-74
2022/02/22 15:01:00;;;;;;;1.02;0.30;;;;;;;;;;5109465;28;20098;-73
2022/02/22 15:03:26;;;;;;;0.32;0.30;;;;;;;;;;5090697;28;20130;-74
2022/02/22 15:05:52;;;;;;;0.95;0.10;;;;;;;;;;5110770;28;20378;-73
2022/02/22 15:08:18;;;;;;;0.40;0.10;;;;;;;;;;5112929;28;20031;-75
2022/02/22 15:10:44;;;;;;;0.08;0.08;;;;;;;;;;5112589;28;20495;-74
2022/02/22 15:13:11;;;;;;;0.43;0.15;;;;;;;;;;5110229;28;20088;-74
2022/02/22 15:15:37;;;;;;;0.50;0.10;;;;;;;;;;5093470;28;20114;-73
2022/02/22 15:18:04;;;;;;;0.55;0.17;;;;;;;;;;5112085;28;20115;-74
2022/02/22 15:20:30;;;;;;;0.60;0.10;;;;;;;;;;5110896;28;20050;-75
2022/02/22 15:22:56;;;;;;;1.20;0.50;;;;;;;;;;5113413;28;20122;-74
2022/02/22 15:25:22;;;;;;;3.55;1.73;;;;;;;;;;5110496;28;20094;-73
2022/02/22 15:27:48;;;;;;;4.20;2.30;;;;;;;;;;5107151;28;20051;-73
2022/02/22 15:30:14;;;;;;;10.48;4.78;;;;;;;;;;5106138;28;20060;-73
2022/02/22 15:32:40;;;;;;;1.05;0.68;;;;;;;;;;5092181;28;20043;-74
2022/02/22 15:35:07;;;;;;;1.15;0.50;;;;;;;;;;5111195;28;20036;-73
2022/02/22 15:37:33;;;;;;;0.88;0.63;;;;;;;;;;5110187;28;20023;-69
2022/02/22 15:39:59;;;;;;;5.40;2.60;;;;;;;;;;5109440;28;20031;-74
2022/02/22 15:42:25;;;;;;;2.05;1.00;;;;;;;;;;5102111;27;20467;-73
2022/02/22 15:44:51;;;;;;;0.40;0.20;;;;;;;;;;5112100;28;20031;-73
2022/02/22 15:47:17;;;;;;;5.55;3.00;;;;;;;;;;5108104;28;20019;-72
2022/02/22 15:49:43;;;;;;;4.30;2.70;;;;;;;;;;5110738;28;20430;-71
2022/02/22 15:52:09;;;;;;;2.35;1.60;;;;;;;;;;5110736;28;20024;-73
2022/02/22 15:54:35;;;;;;;1.60;1.38;;;;;;;;;;5110626;28;20027;-71
2022/02/22 15:57:02;;;;;;;3.85;2.00;;;;;;;;;;5109798;28;20081;-74
2022/02/22 15:59:28;;;;;;;3.53;1.70;;;;;;;;;;5103474;28;20020;-74
2022/02/22 16:01:54;;;;;;;0.80;0.68;;;;;;;;;;5110297;28;20035;-70
2022/02/22 16:04:20;;;;;;;1.90;0.70;;;;;;;;;;5106462;28;20057;-73
2022/02/22 16:06:46;;;;;;;3.20;1.40;;;;;;;;;;5106212;28;20024;-75
2022/02/22 16:09:18;;;;;;;3.90;2.30;;;;;;;;;;5105241;28;21425;-74
2022/02/22 16:11:44;;;;;;;2.78;1.83;;;;;;;;;;5104543;28;20107;-73
2022/02/22 16:14:10;;;;;;;0.50;0.40;;;;;;;;;;5114769;27;20102;-75
2022/02/22 16:16:36;;;;;;;3.47;1.45;;;;;;;;;;5111529;28;20032;-74
2022/02/22 16:19:02;;;;;;;4.47;2.25;;;;;;;;;;5109126;28;20048;-74
2022/02/22 16:21:28;;;;;;;1.65;1.00;;;;;;;;;;5110396;28;20114;-75
2022/02/22 16:23:55;;;;;;;3.65;3.03;;;;;;;;;;5108911;28;20072;-74
2022/02/22 16:26:20;;;;;;;1.70;1.23;;;;;;;;;;5110713;28;20102;-74